Pagina principale
METAR-TAF:

METAR-TAF

Aeroporti :

Cerklje ob Krki, Slovenia

latitudine: 45-53-59N, longitudine: 15-30-55E, altezza: 157 m

Osservazione

Il bollettino è stato emesso 37 minuti fa, alle 20:00 UTC
Vento 1 kt da direzioni variabili
Temperature 19°C
Umidità 94%
Pressione 1016 hPa
Visibilità 10 km o più
nessuna nube inferiore a 1500 m e nessun cumulonembo

METAR: LJCE 162000Z VRB01KT CAVOK 19/18 Q1016

Ora: 22:37 (20:37 UTC)

Previsione

Il bollettino è stato emesso 37 minuti fa, alle 20:00 UTC
Previsione valida dal 16 alle 21 UTC al 17 alle 06 UTC
Vento 3 kt da ovest
Visibilità 10 km o più
nessuna nube inferiore a 1500 m e nessun cumulonembo
Temporaneamente
dal 17 alle 03 UTC al 17 alle 06 UTC
Nubi sparse ad un'altezza di 3500 ft
Nubi sparse ad un'altezza di 16000 ft

TAF: LJCE 162000Z 1621/1706 27003KT CAVOK TEMPO 1703/1706 SCT035 SCT160

Osservazioni e previsioni meteorologiche di più di 4000 aeroporti (messaggi METAR e TAF).

Le stazioni disponibili sono rappresentate dai dischi gialli e rossi sulla carta.

Puntare il mouse per vedere il nome della stazione.

Clicca sopra per visualizzare le osservazioni e previsioni meteorologiche.

Per cambiare la mappa : fare clic sui pulsanti verdi con una croce nera per ingrandire, il pulsante verde con un trattino per diminuire, o sulla freccia verde per le mappe adiacenti.


METAR-TAF: